sensor_id;sensor_type;location;lat;lon;timestamp;temperature;humidity
21149;DHT22;10732;51.472;6.466;2023-03-14T00:00:14;10.70;99.90
21149;DHT22;10732;51.472;6.466;2023-03-14T00:02:40;10.70;99.90
21149;DHT22;10732;51.472;6.466;2023-03-14T00:05:07;10.70;99.90
21149;DHT22;10732;51.472;6.466;2023-03-14T00:07:37;10.80;99.90
21149;DHT22;10732;51.472;6.466;2023-03-14T00:10:09;10.90;99.90
21149;DHT22;10732;51.472;6.466;2023-03-14T00:12:35;11.00;99.90
21149;DHT22;10732;51.472;6.466;2023-03-14T00:15:00;11.10;99.90
21149;DHT22;10732;51.472;6.466;2023-03-14T00:17:29;11.10;99.90
21149;DHT22;10732;51.472;6.466;2023-03-14T00:19:54;11.10;99.90
21149;DHT22;10732;51.472;6.466;2023-03-14T00:22:21;11.10;99.90
21149;DHT22;10732;51.472;6.466;2023-03-14T00:24:46;10.80;99.90
21149;DHT22;10732;51.472;6.466;2023-03-14T00:27:12;10.80;99.90
21149;DHT22;10732;51.472;6.466;2023-03-14T00:29:38;10.70;99.90
21149;DHT22;10732;51.472;6.466;2023-03-14T00:32:03;10.70;99.90
21149;DHT22;10732;51.472;6.466;2023-03-14T00:34:31;10.70;99.90
21149;DHT22;10732;51.472;6.466;2023-03-14T00:36:57;10.70;99.90
21149;DHT22;10732;51.472;6.466;2023-03-14T00:39:23;10.70;99.90
21149;DHT22;10732;51.472;6.466;2023-03-14T00:41:48;10.70;99.90
21149;DHT22;10732;51.472;6.466;2023-03-14T00:44:14;10.70;99.90
21149;DHT22;10732;51.472;6.466;2023-03-14T00:46:39;10.70;99.90
21149;DHT22;10732;51.472;6.466;2023-03-14T00:49:05;10.60;99.90
21149;DHT22;10732;51.472;6.466;2023-03-14T00:51:31;10.60;99.90
21149;DHT22;10732;51.472;6.466;2023-03-14T00:53:56;10.60;99.90
21149;DHT22;10732;51.472;6.466;2023-03-14T00:56:22;10.50;99.90
21149;DHT22;10732;51.472;6.466;2023-03-14T00:58:47;10.40;99.90
21149;DHT22;10732;51.472;6.466;2023-03-14T01:01:16;10.40;99.90
21149;DHT22;10732;51.472;6.466;2023-03-14T01:03:42;10.40;99.90
21149;DHT22;10732;51.472;6.466;2023-03-14T01:06:20;10.40;99.90
21149;DHT22;10732;51.472;6.466;2023-03-14T01:08:46;10.30;99.90
21149;DHT22;10732;51.472;6.466;2023-03-14T01:11:18;10.30;99.90
21149;DHT22;10732;51.472;6.466;2023-03-14T01:13:44;10.30;99.90
21149;DHT22;10732;51.472;6.466;2023-03-14T01:16:12;10.20;99.90
21149;DHT22;10732;51.472;6.466;2023-03-14T01:18:39;10.20;99.90
21149;DHT22;10732;51.472;6.466;2023-03-14T01:21:32;10.20;99.90
21149;DHT22;10732;51.472;6.466;2023-03-14T01:23:57;10.10;99.90
21149;DHT22;10732;51.472;6.466;2023-03-14T01:26:25;10.10;99.90
21149;DHT22;10732;51.472;6.466;2023-03-14T01:28:53;10.10;99.90
21149;DHT22;10732;51.472;6.466;2023-03-14T01:31:19;10.00;99.90
21149;DHT22;10732;51.472;6.466;2023-03-14T01:33:45;10.00;99.90
21149;DHT22;10732;51.472;6.466;2023-03-14T01:36:11;10.00;99.90
21149;DHT22;10732;51.472;6.466;2023-03-14T01:38:38;10.00;99.90
21149;DHT22;10732;51.472;6.466;2023-03-14T01:41:04;9.90;99.90
21149;DHT22;10732;51.472;6.466;2023-03-14T01:43:30;9.90;99.90
21149;DHT22;10732;51.472;6.466;2023-03-14T01:51:16;9.70;99.90
21149;DHT22;10732;51.472;6.466;2023-03-14T01:53:42;9.60;99.90
21149;DHT22;10732;51.472;6.466;2023-03-14T01:56:11;9.60;99.90
21149;DHT22;10732;51.472;6.466;2023-03-14T01:58:40;9.50;99.90
21149;DHT22;10732;51.472;6.466;2023-03-14T02:01:08;9.50;99.90
21149;DHT22;10732;51.472;6.466;2023-03-14T02:03:45;9.60;99.90
21149;DHT22;10732;51.472;6.466;2023-03-14T02:06:14;9.60;99.90
21149;DHT22;10732;51.472;6.466;2023-03-14T02:08:42;9.60;99.90
21149;DHT22;10732;51.472;6.466;2023-03-14T02:11:13;9.50;99.90
21149;DHT22;10732;51.472;6.466;2023-03-14T02:13:38;9.50;99.90
21149;DHT22;10732;51.472;6.466;2023-03-14T02:16:04;9.50;99.90
21149;DHT22;10732;51.472;6.466;2023-03-14T02:18:30;9.60;99.90
21149;DHT22;10732;51.472;6.466;2023-03-14T02:26:43;9.40;99.90
21149;DHT22;10732;51.472;6.466;2023-03-14T02:29:09;9.40;99.90
21149;DHT22;10732;51.472;6.466;2023-03-14T02:31:35;9.40;99.90
21149;DHT22;10732;51.472;6.466;2023-03-14T02:34:01;9.40;99.90
21149;DHT22;10732;51.472;6.466;2023-03-14T02:36:28;9.30;99.90
21149;DHT22;10732;51.472;6.466;2023-03-14T02:39:05;9.20;99.90
21149;DHT22;10732;51.472;6.466;2023-03-14T02:41:33;9.20;99.90
21149;DHT22;10732;51.472;6.466;2023-03-14T02:43:59;9.20;99.90
21149;DHT22;10732;51.472;6.466;2023-03-14T02:46:24;9.20;99.90
21149;DHT22;10732;51.472;6.466;2023-03-14T02:48:54;9.20;99.90
21149;DHT22;10732;51.472;6.466;2023-03-14T02:51:22;9.20;99.90
21149;DHT22;10732;51.472;6.466;2023-03-14T02:53:48;9.30;99.90
21149;DHT22;10732;51.472;6.466;2023-03-14T02:56:14;9.30;99.90
21149;DHT22;10732;51.472;6.466;2023-03-14T02:58:40;9.40;99.90
21149;DHT22;10732;51.472;6.466;2023-03-14T03:01:06;9.40;99.90
21149;DHT22;10732;51.472;6.466;2023-03-14T03:03:32;9.50;99.90
21149;DHT22;10732;51.472;6.466;2023-03-14T03:05:58;9.50;99.90
21149;DHT22;10732;51.472;6.466;2023-03-14T03:08:25;9.50;99.90
21149;DHT22;10732;51.472;6.466;2023-03-14T03:10:51;9.50;99.90
21149;DHT22;10732;51.472;6.466;2023-03-14T03:13:18;9.60;99.90
21149;DHT22;10732;51.472;6.466;2023-03-14T03:15:43;9.60;99.90
21149;DHT22;10732;51.472;6.466;2023-03-14T03:18:09;9.60;99.90
21149;DHT22;10732;51.472;6.466;2023-03-14T03:20:35;9.60;99.90
21149;DHT22;10732;51.472;6.466;2023-03-14T03:23:01;9.60;99.90
21149;DHT22;10732;51.472;6.466;2023-03-14T03:25:27;9.60;99.90
21149;DHT22;10732;51.472;6.466;2023-03-14T03:27:53;9.60;99.90
21149;DHT22;10732;51.472;6.466;2023-03-14T03:30:19;9.60;99.90
21149;DHT22;10732;51.472;6.466;2023-03-14T03:32:45;9.60;99.90
21149;DHT22;10732;51.472;6.466;2023-03-14T03:35:10;9.60;99.90
21149;DHT22;10732;51.472;6.466;2023-03-14T03:37:36;9.70;99.90
21149;DHT22;10732;51.472;6.466;2023-03-14T03:40:02;9.70;99.90
21149;DHT22;10732;51.472;6.466;2023-03-14T03:42:31;9.80;99.90
21149;DHT22;10732;51.472;6.466;2023-03-14T03:44:57;9.80;99.90
21149;DHT22;10732;51.472;6.466;2023-03-14T03:47:23;9.70;99.90
21149;DHT22;10732;51.472;6.466;2023-03-14T03:49:48;9.70;99.90
21149;DHT22;10732;51.472;6.466;2023-03-14T03:52:14;9.70;99.90
21149;DHT22;10732;51.472;6.466;2023-03-14T03:54:40;9.70;99.90
21149;DHT22;10732;51.472;6.466;2023-03-14T03:57:06;9.70;99.90
21149;DHT22;10732;51.472;6.466;2023-03-14T03:59:31;9.70;99.90
21149;DHT22;10732;51.472;6.466;2023-03-14T04:01:57;9.70;99.90
21149;DHT22;10732;51.472;6.466;2023-03-14T04:04:22;9.70;99.90
21149;DHT22;10732;51.472;6.466;2023-03-14T04:06:49;9.80;99.90
21149;DHT22;10732;51.472;6.466;2023-03-14T04:09:15;9.80;99.90
21149;DHT22;10732;51.472;6.466;2023-03-14T04:11:40;9.80;99.90
21149;DHT22;10732;51.472;6.466;2023-03-14T04:14:07;9.80;99.90
21149;DHT22;10732;51.472;6.466;2023-03-14T04:16:33;9.60;99.90
21149;DHT22;10732;51.472;6.466;2023-03-14T04:18:59;9.70;99.90
21149;DHT22;10732;51.472;6.466;2023-03-14T04:21:24;9.60;99.90
21149;DHT22;10732;51.472;6.466;2023-03-14T04:23:50;9.60;99.90
21149;DHT22;10732;51.472;6.466;2023-03-14T04:26:16;9.50;99.90
21149;DHT22;10732;51.472;6.466;2023-03-14T04:28:41;9.50;99.90
21149;DHT22;10732;51.472;6.466;2023-03-14T04:31:15;9.30;99.90
21149;DHT22;10732;51.472;6.466;2023-03-14T04:33:41;9.20;99.90
21149;DHT22;10732;51.472;6.466;2023-03-14T04:36:07;9.10;99.90
21149;DHT22;10732;51.472;6.466;2023-03-14T04:38:33;9.10;99.90
21149;DHT22;10732;51.472;6.466;2023-03-14T04:41:00;9.00;99.90
21149;DHT22;10732;51.472;6.466;2023-03-14T04:43:26;9.00;99.90
21149;DHT22;10732;51.472;6.466;2023-03-14T04:45:56;8.90;99.90
21149;DHT22;10732;51.472;6.466;2023-03-14T04:48:23;8.90;99.90
21149;DHT22;10732;51.472;6.466;2023-03-14T04:50:49;8.90;99.90
21149;DHT22;10732;51.472;6.466;2023-03-14T04:53:15;8.90;99.90
21149;DHT22;10732;51.472;6.466;2023-03-14T04:55:41;8.90;99.90
21149;DHT22;10732;51.472;6.466;2023-03-14T04:58:07;8.80;99.90
21149;DHT22;10732;51.472;6.466;2023-03-14T05:00:32;8.80;99.90
21149;DHT22;10732;51.472;6.466;2023-03-14T05:02:58;8.80;99.90
21149;DHT22;10732;51.472;6.466;2023-03-14T05:05:24;8.70;99.90
21149;DHT22;10732;51.472;6.466;2023-03-14T05:07:50;8.70;99.90
21149;DHT22;10732;51.472;6.466;2023-03-14T05:10:15;8.70;99.90
21149;DHT22;10732;51.472;6.466;2023-03-14T05:12:41;8.60;99.90
21149;DHT22;10732;51.472;6.466;2023-03-14T05:15:07;8.50;99.90
21149;DHT22;10732;51.472;6.466;2023-03-14T05:17:33;8.50;99.90
21149;DHT22;10732;51.472;6.466;2023-03-14T05:19:59;8.50;99.90
21149;DHT22;10732;51.472;6.466;2023-03-14T05:22:25;8.40;99.90
21149;DHT22;10732;51.472;6.466;2023-03-14T05:24:50;8.40;99.90
21149;DHT22;10732;51.472;6.466;2023-03-14T05:27:16;8.40;99.90
21149;DHT22;10732;51.472;6.466;2023-03-14T05:29:41;8.40;99.90
21149;DHT22;10732;51.472;6.466;2023-03-14T05:32:07;8.30;99.90
21149;DHT22;10732;51.472;6.466;2023-03-14T05:34:33;8.30;99.90
21149;DHT22;10732;51.472;6.466;2023-03-14T05:36:58;8.30;99.90
21149;DHT22;10732;51.472;6.466;2023-03-14T05:39:24;8.30;99.90
21149;DHT22;10732;51.472;6.466;2023-03-14T05:41:50;8.30;99.90
21149;DHT22;10732;51.472;6.466;2023-03-14T05:44:16;8.30;99.90
21149;DHT22;10732;51.472;6.466;2023-03-14T05:46:42;8.30;99.90
21149;DHT22;10732;51.472;6.466;2023-03-14T05:49:07;8.30;99.90
21149;DHT22;10732;51.472;6.466;2023-03-14T05:51:33;8.30;99.90
21149;DHT22;10732;51.472;6.466;2023-03-14T05:53:59;8.30;99.90
21149;DHT22;10732;51.472;6.466;2023-03-14T05:56:24;8.30;99.90
21149;DHT22;10732;51.472;6.466;2023-03-14T05:58:50;8.40;99.90
21149;DHT22;10732;51.472;6.466;2023-03-14T06:01:15;8.40;99.90
21149;DHT22;10732;51.472;6.466;2023-03-14T06:03:41;8.50;99.90
21149;DHT22;10732;51.472;6.466;2023-03-14T06:06:07;8.50;99.90
21149;DHT22;10732;51.472;6.466;2023-03-14T06:08:32;8.50;99.90
21149;DHT22;10732;51.472;6.466;2023-03-14T06:10:58;8.60;99.90
21149;DHT22;10732;51.472;6.466;2023-03-14T06:13:24;8.60;99.90
21149;DHT22;10732;51.472;6.466;2023-03-14T06:15:49;8.70;99.90
21149;DHT22;10732;51.472;6.466;2023-03-14T06:18:15;8.70;99.90
21149;DHT22;10732;51.472;6.466;2023-03-14T06:20:40;8.70;99.90
21149;DHT22;10732;51.472;6.466;2023-03-14T06:23:07;8.80;99.90
21149;DHT22;10732;51.472;6.466;2023-03-14T06:25:33;8.80;99.90
21149;DHT22;10732;51.472;6.466;2023-03-14T06:27:59;8.90;99.90
21149;DHT22;10732;51.472;6.466;2023-03-14T06:30:24;9.00;99.90
21149;DHT22;10732;51.472;6.466;2023-03-14T06:32:50;9.00;99.90
21149;DHT22;10732;51.472;6.466;2023-03-14T06:35:15;9.10;99.90
21149;DHT22;10732;51.472;6.466;2023-03-14T06:37:44;9.20;99.90
21149;DHT22;10732;51.472;6.466;2023-03-14T06:40:11;9.20;99.90
21149;DHT22;10732;51.472;6.466;2023-03-14T06:42:42;9.40;99.90
21149;DHT22;10732;51.472;6.466;2023-03-14T06:45:08;9.40;99.90
21149;DHT22;10732;51.472;6.466;2023-03-14T06:47:34;9.50;99.90
21149;DHT22;10732;51.472;6.466;2023-03-14T06:50:00;9.40;99.90
21149;DHT22;10732;51.472;6.466;2023-03-14T06:52:25;9.40;99.90
21149;DHT22;10732;51.472;6.466;2023-03-14T06:54:51;9.40;99.90
21149;DHT22;10732;51.472;6.466;2023-03-14T06:57:16;9.40;99.90
21149;DHT22;10732;51.472;6.466;2023-03-14T06:59:42;9.40;99.90
21149;DHT22;10732;51.472;6.466;2023-03-14T07:02:10;9.40;99.90
21149;DHT22;10732;51.472;6.466;2023-03-14T07:04:37;9.30;99.90
21149;DHT22;10732;51.472;6.466;2023-03-14T07:07:02;9.30;99.90
21149;DHT22;10732;51.472;6.466;2023-03-14T07:09:28;9.30;99.90
21149;DHT22;10732;51.472;6.466;2023-03-14T07:11:53;9.30;99.90
21149;DHT22;10732;51.472;6.466;2023-03-14T07:14:19;9.30;99.90
21149;DHT22;10732;51.472;6.466;2023-03-14T07:16:44;9.40;99.90
21149;DHT22;10732;51.472;6.466;2023-03-14T07:19:10;9.40;99.90
21149;DHT22;10732;51.472;6.466;2023-03-14T07:21:36;9.50;99.90
21149;DHT22;10732;51.472;6.466;2023-03-14T07:24:01;9.50;99.90
21149;DHT22;10732;51.472;6.466;2023-03-14T07:26:27;9.60;99.90
21149;DHT22;10732;51.472;6.466;2023-03-14T07:28:53;9.60;99.90
21149;DHT22;10732;51.472;6.466;2023-03-14T07:31:18;9.60;99.90
21149;DHT22;10732;51.472;6.466;2023-03-14T07:33:44;9.70;99.90
21149;DHT22;10732;51.472;6.466;2023-03-14T07:36:10;9.70;99.90
21149;DHT22;10732;51.472;6.466;2023-03-14T07:38:35;9.80;99.90
21149;DHT22;10732;51.472;6.466;2023-03-14T07:41:02;9.80;99.90
21149;DHT22;10732;51.472;6.466;2023-03-14T07:43:29;9.90;99.90
21149;DHT22;10732;51.472;6.466;2023-03-14T07:45:54;9.90;99.90
21149;DHT22;10732;51.472;6.466;2023-03-14T07:48:20;9.90;99.90
21149;DHT22;10732;51.472;6.466;2023-03-14T07:50:50;10.00;99.90
21149;DHT22;10732;51.472;6.466;2023-03-14T07:53:16;10.10;99.90
21149;DHT22;10732;51.472;6.466;2023-03-14T07:55:42;10.30;99.90
21149;DHT22;10732;51.472;6.466;2023-03-14T07:58:07;10.60;99.90
21149;DHT22;10732;51.472;6.466;2023-03-14T08:00:33;10.80;99.90
21149;DHT22;10732;51.472;6.466;2023-03-14T08:02:58;10.90;99.90
21149;DHT22;10732;51.472;6.466;2023-03-14T08:05:24;10.80;99.90
21149;DHT22;10732;51.472;6.466;2023-03-14T08:07:50;10.80;99.90
21149;DHT22;10732;51.472;6.466;2023-03-14T08:10:15;10.80;99.90
21149;DHT22;10732;51.472;6.466;2023-03-14T08:12:53;10.70;99.90
21149;DHT22;10732;51.472;6.466;2023-03-14T08:15:19;10.90;99.90
21149;DHT22;10732;51.472;6.466;2023-03-14T08:17:45;10.80;99.90
21149;DHT22;10732;51.472;6.466;2023-03-14T08:20:11;10.70;99.90
21149;DHT22;10732;51.472;6.466;2023-03-14T08:22:37;10.80;99.90
21149;DHT22;10732;51.472;6.466;2023-03-14T08:25:04;10.80;99.90
21149;DHT22;10732;51.472;6.466;2023-03-14T08:27:29;10.70;99.90
21149;DHT22;10732;51.472;6.466;2023-03-14T08:29:55;10.70;99.90
21149;DHT22;10732;51.472;6.466;2023-03-14T08:32:20;10.80;99.90
21149;DHT22;10732;51.472;6.466;2023-03-14T08:34:47;10.70;99.90
21149;DHT22;10732;51.472;6.466;2023-03-14T08:37:13;10.90;99.90
21149;DHT22;10732;51.472;6.466;2023-03-14T08:39:38;10.90;99.90
21149;DHT22;10732;51.472;6.466;2023-03-14T08:42:04;10.80;99.90
21149;DHT22;10732;51.472;6.466;2023-03-14T08:44:29;10.80;99.90
21149;DHT22;10732;51.472;6.466;2023-03-14T08:46:55;10.70;99.90
21149;DHT22;10732;51.472;6.466;2023-03-14T08:49:21;10.00;99.90
21149;DHT22;10732;51.472;6.466;2023-03-14T08:51:46;9.00;99.90
21149;DHT22;10732;51.472;6.466;2023-03-14T08:54:12;8.70;99.90
21149;DHT22;10732;51.472;6.466;2023-03-14T08:56:38;8.60;99.90
21149;DHT22;10732;51.472;6.466;2023-03-14T08:59:04;8.50;99.90
21149;DHT22;10732;51.472;6.466;2023-03-14T09:01:30;8.40;99.90
21149;DHT22;10732;51.472;6.466;2023-03-14T09:03:56;8.30;99.90
21149;DHT22;10732;51.472;6.466;2023-03-14T09:06:22;8.30;99.90
21149;DHT22;10732;51.472;6.466;2023-03-14T09:08:47;8.40;99.90
21149;DHT22;10732;51.472;6.466;2023-03-14T09:11:13;8.40;99.90
21149;DHT22;10732;51.472;6.466;2023-03-14T09:13:39;8.50;99.90
21149;DHT22;10732;51.472;6.466;2023-03-14T09:16:05;8.60;99.90
21149;DHT22;10732;51.472;6.466;2023-03-14T09:18:31;8.60;99.90
21149;DHT22;10732;51.472;6.466;2023-03-14T09:20:56;8.70;99.90
21149;DHT22;10732;51.472;6.466;2023-03-14T09:23:22;8.60;99.90
21149;DHT22;10732;51.472;6.466;2023-03-14T09:25:47;8.70;99.90
21149;DHT22;10732;51.472;6.466;2023-03-14T09:28:13;8.70;99.90
21149;DHT22;10732;51.472;6.466;2023-03-14T09:30:39;8.90;99.90
21149;DHT22;10732;51.472;6.466;2023-03-14T09:33:04;9.10;99.90
21149;DHT22;10732;51.472;6.466;2023-03-14T09:35:30;9.10;99.90
21149;DHT22;10732;51.472;6.466;2023-03-14T09:37:55;9.00;99.90
21149;DHT22;10732;51.472;6.466;2023-03-14T09:40:21;8.90;99.90
21149;DHT22;10732;51.472;6.466;2023-03-14T09:42:51;8.80;99.90
21149;DHT22;10732;51.472;6.466;2023-03-14T09:47:47;8.90;99.90
21149;DHT22;10732;51.472;6.466;2023-03-14T09:50:16;9.00;99.90
21149;DHT22;10732;51.472;6.466;2023-03-14T09:52:48;9.10;99.90
21149;DHT22;10732;51.472;6.466;2023-03-14T09:55:20;8.90;99.90
21149;DHT22;10732;51.472;6.466;2023-03-14T09:57:48;8.90;99.90
21149;DHT22;10732;51.472;6.466;2023-03-14T10:00:23;8.80;99.90
21149;DHT22;10732;51.472;6.466;2023-03-14T10:02:55;8.70;99.90
21149;DHT22;10732;51.472;6.466;2023-03-14T10:05:23;8.70;99.90
21149;DHT22;10732;51.472;6.466;2023-03-14T10:07:49;8.40;99.90
21149;DHT22;10732;51.472;6.466;2023-03-14T10:10:18;8.40;99.90
21149;DHT22;10732;51.472;6.466;2023-03-14T10:12:55;8.20;99.90
21149;DHT22;10732;51.472;6.466;2023-03-14T10:15:32;8.20;99.90
21149;DHT22;10732;51.472;6.466;2023-03-14T10:18:00;8.10;99.90
21149;DHT22;10732;51.472;6.466;2023-03-14T10:20:37;8.10;99.90
21149;DHT22;10732;51.472;6.466;2023-03-14T10:25:31;8.00;99.90
21149;DHT22;10732;51.472;6.466;2023-03-14T10:27:57;8.00;99.90
21149;DHT22;10732;51.472;6.466;2023-03-14T10:30:45;8.00;99.90
21149;DHT22;10732;51.472;6.466;2023-03-14T10:33:23;8.00;99.90
21149;DHT22;10732;51.472;6.466;2023-03-14T10:36:02;8.00;99.90
21149;DHT22;10732;51.472;6.466;2023-03-14T10:38:33;8.10;99.90
21149;DHT22;10732;51.472;6.466;2023-03-14T10:40:59;8.10;99.90
21149;DHT22;10732;51.472;6.466;2023-03-14T10:43:32;8.10;99.90
21149;DHT22;10732;51.472;6.466;2023-03-14T10:46:12;8.00;99.90
21149;DHT22;10732;51.472;6.466;2023-03-14T10:48:39;7.90;99.90
21149;DHT22;10732;51.472;6.466;2023-03-14T10:51:19;7.80;99.90
21149;DHT22;10732;51.472;6.466;2023-03-14T10:53:47;8.00;99.90
21149;DHT22;10732;51.472;6.466;2023-03-14T10:56:14;8.20;99.90
21149;DHT22;10732;51.472;6.466;2023-03-14T10:58:43;8.60;99.90
21149;DHT22;10732;51.472;6.466;2023-03-14T11:03:54;8.20;99.90
21149;DHT22;10732;51.472;6.466;2023-03-14T11:09:33;8.10;99.90
21149;DHT22;10732;51.472;6.466;2023-03-14T11:12:43;8.10;99.90
21149;DHT22;10732;51.472;6.466;2023-03-14T11:15:15;8.50;99.90
21149;DHT22;10732;51.472;6.466;2023-03-14T11:20:47;8.60;99.90
21149;DHT22;10732;51.472;6.466;2023-03-14T11:23:20;8.80;99.90
21149;DHT22;10732;51.472;6.466;2023-03-14T11:25:55;8.90;99.90
21149;DHT22;10732;51.472;6.466;2023-03-14T11:28:37;8.80;99.90
21149;DHT22;10732;51.472;6.466;2023-03-14T11:33:37;8.40;99.90
21149;DHT22;10732;51.472;6.466;2023-03-14T11:36:12;8.00;99.90
21149;DHT22;10732;51.472;6.466;2023-03-14T11:38:48;8.30;99.90
21149;DHT22;10732;51.472;6.466;2023-03-14T11:41:39;8.70;99.90
21149;DHT22;10732;51.472;6.466;2023-03-14T11:44:36;9.30;99.90
21149;DHT22;10732;51.472;6.466;2023-03-14T11:47:18;9.20;99.90
21149;DHT22;10732;51.472;6.466;2023-03-14T11:49:51;8.90;99.90
21149;DHT22;10732;51.472;6.466;2023-03-14T11:57:55;8.90;99.90
21149;DHT22;10732;51.472;6.466;2023-03-14T12:00:25;8.70;99.90
21149;DHT22;10732;51.472;6.466;2023-03-14T12:03:14;8.70;99.90
21149;DHT22;10732;51.472;6.466;2023-03-14T12:06:16;9.00;99.90
21149;DHT22;10732;51.472;6.466;2023-03-14T12:13:38;9.00;99.90
21149;DHT22;10732;51.472;6.466;2023-03-14T12:16:06;8.60;99.90
21149;DHT22;10732;51.472;6.466;2023-03-14T12:18:35;7.90;99.90
21149;DHT22;10732;51.472;6.466;2023-03-14T12:21:08;7.20;99.90
21149;DHT22;10732;51.472;6.466;2023-03-14T12:23:55;6.90;99.90
21149;DHT22;10732;51.472;6.466;2023-03-14T12:26:26;6.90;99.90
21149;DHT22;10732;51.472;6.466;2023-03-14T12:31:38;7.50;99.90
21149;DHT22;10732;51.472;6.466;2023-03-14T12:34:27;7.80;99.90
21149;DHT22;10732;51.472;6.466;2023-03-14T12:39:58;8.00;99.90
21149;DHT22;10732;51.472;6.466;2023-03-14T12:42:57;8.10;99.90
21149;DHT22;10732;51.472;6.466;2023-03-14T12:48:10;8.50;99.90
21149;DHT22;10732;51.472;6.466;2023-03-14T12:50:43;8.70;99.90
21149;DHT22;10732;51.472;6.466;2023-03-14T12:59:28;8.50;99.90
21149;DHT22;10732;51.472;6.466;2023-03-14T13:05:17;9.00;99.90
21149;DHT22;10732;51.472;6.466;2023-03-14T13:15:31;8.90;99.90
21149;DHT22;10732;51.472;6.466;2023-03-14T13:18:11;9.10;99.90
21149;DHT22;10732;51.472;6.466;2023-03-14T13:20:59;8.90;99.90
21149;DHT22;10732;51.472;6.466;2023-03-14T13:23:29;8.80;99.90
21149;DHT22;10732;51.472;6.466;2023-03-14T13:25:56;8.90;99.90
21149;DHT22;10732;51.472;6.466;2023-03-14T13:28:22;9.00;99.90
21149;DHT22;10732;51.472;6.466;2023-03-14T13:30:58;9.10;99.90
21149;DHT22;10732;51.472;6.466;2023-03-14T13:33:23;9.20;1.00
21149;DHT22;10732;51.472;6.466;2023-03-14T13:35:58;9.20;99.90
21149;DHT22;10732;51.472;6.466;2023-03-14T13:38:26;9.40;1.00
21149;DHT22;10732;51.472;6.466;2023-03-14T13:40:55;9.60;99.90
21149;DHT22;10732;51.472;6.466;2023-03-14T13:46:22;9.30;99.90
21149;DHT22;10732;51.472;6.466;2023-03-14T13:48:51;9.50;1.00
21149;DHT22;10732;51.472;6.466;2023-03-14T13:51:19;9.50;1.00
21149;DHT22;10732;51.472;6.466;2023-03-14T13:53:48;9.80;99.90
21149;DHT22;10732;51.472;6.466;2023-03-14T13:56:16;9.60;1.00
21149;DHT22;10732;51.472;6.466;2023-03-14T13:58:42;9.30;99.90
21149;DHT22;10732;51.472;6.466;2023-03-14T14:03:55;9.50;1.00
21149;DHT22;10732;51.472;6.466;2023-03-14T14:06:28;9.60;99.90
21149;DHT22;10732;51.472;6.466;2023-03-14T14:08:56;9.50;99.90
21149;DHT22;10732;51.472;6.466;2023-03-14T14:11:49;9.30;99.90
21149;DHT22;10732;51.472;6.466;2023-03-14T14:14:30;9.20;99.90
21149;DHT22;10732;51.472;6.466;2023-03-14T14:16:58;9.20;99.90
21149;DHT22;10732;51.472;6.466;2023-03-14T14:19:25;9.20;1.00
21149;DHT22;10732;51.472;6.466;2023-03-14T14:21:53;9.00;99.90
21149;DHT22;10732;51.472;6.466;2023-03-14T14:24:21;9.00;99.90
21149;DHT22;10732;51.472;6.466;2023-03-14T14:26:51;9.00;99.90
21149;DHT22;10732;51.472;6.466;2023-03-14T14:29:27;9.10;99.90
21149;DHT22;10732;51.472;6.466;2023-03-14T14:34:46;9.00;99.90
21149;DHT22;10732;51.472;6.466;2023-03-14T14:37:23;8.90;99.90
21149;DHT22;10732;51.472;6.466;2023-03-14T14:39:52;8.90;99.90
21149;DHT22;10732;51.472;6.466;2023-03-14T14:42:25;9.00;99.90
21149;DHT22;10732;51.472;6.466;2023-03-14T14:44:53;9.20;99.90
21149;DHT22;10732;51.472;6.466;2023-03-14T14:47:21;8.90;99.90
21149;DHT22;10732;51.472;6.466;2023-03-14T14:49:48;9.00;1.00
21149;DHT22;10732;51.472;6.466;2023-03-14T14:52:31;8.80;99.90
21149;DHT22;10732;51.472;6.466;2023-03-14T14:54:59;8.80;99.90
21149;DHT22;10732;51.472;6.466;2023-03-14T14:57:32;8.80;99.90
21149;DHT22;10732;51.472;6.466;2023-03-14T15:00:17;8.80;99.90
21149;DHT22;10732;51.472;6.466;2023-03-14T15:02:49;8.80;99.90
21149;DHT22;10732;51.472;6.466;2023-03-14T15:05:25;8.80;99.90
21149;DHT22;10732;51.472;6.466;2023-03-14T15:07:51;8.90;99.90
21149;DHT22;10732;51.472;6.466;2023-03-14T15:10:22;8.90;99.90
21149;DHT22;10732;51.472;6.466;2023-03-14T15:12:48;8.90;99.90
21149;DHT22;10732;51.472;6.466;2023-03-14T15:15:14;9.10;99.90
21149;DHT22;10732;51.472;6.466;2023-03-14T15:17:40;9.10;99.90
21149;DHT22;10732;51.472;6.466;2023-03-14T15:20:10;8.90;99.90
21149;DHT22;10732;51.472;6.466;2023-03-14T15:22:39;8.90;99.90
21149;DHT22;10732;51.472;6.466;2023-03-14T15:25:04;8.90;99.90
21149;DHT22;10732;51.472;6.466;2023-03-14T15:27:32;8.90;99.90
21149;DHT22;10732;51.472;6.466;2023-03-14T15:29:58;8.70;99.90
21149;DHT22;10732;51.472;6.466;2023-03-14T15:32:24;8.70;99.90
21149;DHT22;10732;51.472;6.466;2023-03-14T15:34:54;8.50;99.90
21149;DHT22;10732;51.472;6.466;2023-03-14T15:37:20;8.40;99.90
21149;DHT22;10732;51.472;6.466;2023-03-14T15:39:45;8.20;99.90
21149;DHT22;10732;51.472;6.466;2023-03-14T15:42:11;8.10;99.90
21149;DHT22;10732;51.472;6.466;2023-03-14T15:44:37;8.20;99.90
21149;DHT22;10732;51.472;6.466;2023-03-14T15:47:03;8.30;99.90
21149;DHT22;10732;51.472;6.466;2023-03-14T15:49:29;8.30;99.90
21149;DHT22;10732;51.472;6.466;2023-03-14T15:51:54;8.20;99.90
21149;DHT22;10732;51.472;6.466;2023-03-14T15:54:20;8.10;99.90
21149;DHT22;10732;51.472;6.466;2023-03-14T15:56:45;8.20;99.90
21149;DHT22;10732;51.472;6.466;2023-03-14T15:59:11;8.10;99.90
21149;DHT22;10732;51.472;6.466;2023-03-14T16:01:36;8.00;99.90
21149;DHT22;10732;51.472;6.466;2023-03-14T16:04:02;7.90;99.90
21149;DHT22;10732;51.472;6.466;2023-03-14T16:06:28;7.80;99.90
21149;DHT22;10732;51.472;6.466;2023-03-14T16:08:56;7.70;99.90
21149;DHT22;10732;51.472;6.466;2023-03-14T16:11:21;7.70;99.90
21149;DHT22;10732;51.472;6.466;2023-03-14T16:13:47;7.70;99.90
21149;DHT22;10732;51.472;6.466;2023-03-14T16:16:13;7.70;99.90
21149;DHT22;10732;51.472;6.466;2023-03-14T16:18:39;7.70;99.90
21149;DHT22;10732;51.472;6.466;2023-03-14T16:21:08;7.60;99.90
21149;DHT22;10732;51.472;6.466;2023-03-14T16:23:35;7.70;99.90
21149;DHT22;10732;51.472;6.466;2023-03-14T16:26:06;7.70;99.90
21149;DHT22;10732;51.472;6.466;2023-03-14T16:28:32;7.50;99.90
21149;DHT22;10732;51.472;6.466;2023-03-14T16:31:09;7.50;99.90
21149;DHT22;10732;51.472;6.466;2023-03-14T16:33:37;7.30;99.90
21149;DHT22;10732;51.472;6.466;2023-03-14T16:36:04;7.30;99.90
21149;DHT22;10732;51.472;6.466;2023-03-14T16:38:36;7.20;99.90
21149;DHT22;10732;51.472;6.466;2023-03-14T16:41:04;7.10;99.90
21149;DHT22;10732;51.472;6.466;2023-03-14T16:43:30;7.10;99.90
21149;DHT22;10732;51.472;6.466;2023-03-14T16:45:59;7.10;99.90
21149;DHT22;10732;51.472;6.466;2023-03-14T16:48:26;7.00;99.90
21149;DHT22;10732;51.472;6.466;2023-03-14T16:50:52;7.00;99.90
21149;DHT22;10732;51.472;6.466;2023-03-14T16:53:18;6.90;99.90
21149;DHT22;10732;51.472;6.466;2023-03-14T16:55:44;6.90;99.90
21149;DHT22;10732;51.472;6.466;2023-03-14T16:58:10;6.80;99.90
21149;DHT22;10732;51.472;6.466;2023-03-14T17:00:35;6.70;99.90
21149;DHT22;10732;51.472;6.466;2023-03-14T17:03:02;6.70;99.90